createdAt,value
2022-09-01T00:02:50.824Z,100.00
2022-09-01T00:07:52.747Z,100.00
2022-09-01T00:12:54.218Z,100.00
2022-09-01T00:17:55.815Z,100.00
2022-09-01T00:22:57.266Z,100.00
2022-09-01T00:28:00.379Z,100.00
2022-09-01T00:33:02.535Z,100.00
2022-09-01T00:38:04.156Z,100.00
2022-09-01T00:43:28.524Z,100.00
2022-09-01T00:48:29.917Z,100.00
2022-09-01T00:53:32.549Z,100.00
2022-09-01T00:58:34.643Z,100.00
2022-09-01T01:03:36.645Z,100.00
2022-09-01T01:08:40.389Z,100.00
2022-09-01T01:13:48.809Z,100.00
2022-09-01T01:18:50.750Z,100.00
2022-09-01T01:23:57.609Z,100.00
2022-09-01T01:29:00.996Z,100.00
2022-09-01T01:34:05.692Z,100.00
2022-09-01T01:39:07.565Z,100.00
2022-09-01T01:44:09.580Z,100.00
2022-09-01T01:49:13.450Z,100.00
2022-09-01T01:54:15.913Z,100.00
2022-09-01T01:59:19.483Z,100.00
2022-09-01T02:04:20.977Z,100.00
2022-09-01T02:09:23.471Z,100.00
2022-09-01T02:14:25.013Z,100.00
2022-09-01T02:19:26.468Z,100.00
2022-09-01T02:24:32.032Z,100.00
2022-09-01T02:29:33.465Z,100.00
2022-09-01T02:34:41.713Z,100.00
2022-09-01T02:39:43.235Z,100.00
2022-09-01T02:44:44.709Z,100.00
2022-09-01T02:49:46.676Z,100.00
2022-09-01T02:54:50.747Z,100.00
2022-09-01T02:59:52.174Z,100.00
2022-09-01T03:04:55.824Z,100.00
2022-09-01T03:09:57.383Z,100.00
2022-09-01T03:14:58.795Z,100.00
2022-09-01T03:20:00.325Z,100.00
2022-09-01T03:25:01.728Z,100.00
2022-09-01T03:30:03.988Z,100.00
2022-09-01T03:35:06.122Z,100.00
2022-09-01T03:40:09.223Z,100.00
2022-09-01T03:45:12.789Z,100.00
2022-09-01T03:50:20.595Z,100.00
2022-09-01T03:55:24.455Z,100.00
2022-09-01T04:00:29.986Z,100.00
2022-09-01T04:05:33.906Z,100.00
2022-09-01T04:10:37.968Z,100.00
2022-09-01T04:15:39.533Z,100.00
2022-09-01T04:20:48.600Z,100.00
2022-09-01T04:25:54.175Z,100.00
2022-09-01T04:30:57.036Z,100.00
2022-09-01T04:36:00.763Z,100.00
2022-09-01T04:41:06.786Z,100.00
2022-09-01T04:46:08.245Z,100.00
2022-09-01T04:51:10.515Z,100.00
2022-09-01T04:56:11.996Z,100.00
2022-09-01T05:01:20.966Z,100.00
2022-09-01T05:06:22.515Z,100.00
2022-09-01T05:11:24.146Z,100.00
2022-09-01T05:16:30.145Z,100.00
2022-09-01T05:21:31.947Z,100.00
2022-09-01T05:26:34.978Z,100.00
2022-09-01T05:31:38.007Z,100.00
2022-09-01T05:36:42.346Z,100.00
2022-09-01T05:41:44.081Z,100.00
2022-09-01T05:46:46.825Z,100.00
2022-09-01T05:51:51.707Z,100.00
2022-09-01T05:56:55.756Z,100.00
2022-09-01T06:01:57.713Z,100.00
2022-09-01T06:07:06.718Z,100.00
2022-09-01T06:12:18.077Z,100.00
2022-09-01T06:17:24.964Z,100.00
2022-09-01T06:22:28.249Z,100.00
2022-09-01T06:27:30.061Z,100.00
2022-09-01T06:32:33.733Z,100.00
2022-09-01T06:37:35.353Z,100.00
2022-09-01T06:42:37.951Z,100.00
2022-09-01T06:47:39.412Z,100.00
2022-09-01T06:58:07.309Z,100.00
2022-09-01T07:03:11.102Z,100.00
2022-09-01T07:08:17.855Z,100.00
2022-09-01T07:13:22.748Z,100.00
2022-09-01T07:18:25.453Z,100.00
2022-09-01T07:23:46.210Z,100.00
2022-09-01T07:28:50.856Z,100.00
2022-09-01T07:33:55.751Z,100.00
2022-09-01T07:44:38.617Z,100.00
2022-09-01T07:50:11.532Z,100.00
2022-09-01T07:55:02.880Z,100.00
2022-09-01T08:00:06.166Z,100.00
2022-09-01T08:05:09.279Z,100.00
2022-09-01T08:10:11.003Z,100.00
2022-09-01T08:15:13.925Z,100.00
2022-09-01T08:20:39.570Z,99.92
2022-09-01T08:25:42.439Z,100.00
2022-09-01T08:30:52.487Z,97.83
2022-09-01T08:35:55.490Z,95.60
2022-09-01T08:40:59.025Z,94.89
2022-09-01T08:46:12.322Z,93.32
2022-09-01T08:51:23.855Z,92.25
2022-09-01T08:56:25.776Z,91.59
2022-09-01T09:01:31.642Z,90.02
2022-09-01T09:06:39.031Z,88.93
2022-09-01T09:11:40.874Z,87.84
2022-09-01T09:16:44.036Z,85.32
2022-09-01T09:21:47.725Z,85.61
2022-09-01T09:26:52.895Z,82.86
2022-09-01T09:37:34.901Z,76.60
2022-09-01T09:42:39.843Z,73.34
2022-09-01T09:47:44.684Z,64.48
2022-09-01T09:52:48.098Z,60.18
2022-09-01T09:57:50.728Z,58.50
2022-09-01T10:03:01.445Z,53.51
2022-09-01T10:08:08.168Z,49.64
2022-09-01T10:13:22.129Z,45.41
2022-09-01T10:18:37.529Z,45.12
2022-09-01T10:23:41.869Z,43.66
2022-09-01T10:29:02.977Z,42.69
2022-09-01T10:34:05.831Z,41.72
2022-09-01T10:39:11.408Z,43.00
2022-09-01T10:44:35.795Z,41.22
2022-09-01T10:49:46.433Z,40.86
2022-09-01T10:54:55.856Z,38.48
2022-09-01T11:06:11.177Z,36.79
2022-09-01T11:11:25.331Z,38.92
2022-09-01T11:22:29.995Z,38.70
2022-09-01T11:27:49.537Z,39.99
2022-09-01T11:32:53.445Z,37.65
2022-09-01T11:38:02.785Z,38.70
2022-09-01T11:43:12.537Z,38.82
2022-09-01T11:48:14.867Z,38.69
2022-09-01T11:53:21.741Z,38.40
2022-09-01T11:58:27.189Z,37.73
2022-09-01T12:03:32.135Z,38.84
2022-09-01T12:08:35.662Z,37.22
2022-09-01T12:13:38.202Z,36.07
2022-09-01T12:18:47.567Z,37.59
2022-09-01T12:23:49.440Z,38.10
2022-09-01T12:28:51.079Z,38.00
2022-09-01T12:33:53.566Z,37.73
2022-09-01T12:39:18.110Z,36.84
2022-09-01T12:44:30.484Z,38.31
2022-09-01T12:49:35.259Z,38.29
2022-09-01T12:54:37.222Z,38.33
2022-09-01T12:59:38.831Z,38.72
2022-09-01T13:04:42.131Z,39.18
2022-09-01T13:09:44.368Z,38.31
2022-09-01T13:14:47.711Z,36.67
2022-09-01T13:19:49.362Z,37.83
2022-09-01T13:24:51.146Z,37.69
2022-09-01T13:29:56.186Z,37.27
2022-09-01T13:34:57.757Z,36.60
2022-09-01T13:39:59.485Z,37.01
2022-09-01T13:45:01.333Z,38.19
2022-09-01T13:50:08.587Z,39.30
2022-09-01T13:55:12.189Z,38.09
2022-09-01T14:00:16.039Z,38.29
2022-09-01T14:05:20.680Z,37.32
2022-09-01T14:10:23.264Z,37.17
2022-09-01T14:15:27.378Z,37.58
2022-09-01T14:20:36.043Z,38.76
2022-09-01T14:25:42.135Z,38.55
2022-09-01T14:30:43.967Z,38.23
2022-09-01T14:35:47.050Z,38.42
2022-09-01T14:40:49.303Z,37.79
2022-09-01T14:45:50.831Z,38.56
2022-09-01T14:50:52.875Z,38.98
2022-09-01T14:55:56.940Z,39.78
2022-09-01T15:01:17.444Z,39.05
2022-09-01T15:06:22.831Z,39.93
2022-09-01T15:11:24.331Z,41.80
2022-09-01T15:16:26.287Z,41.79
2022-09-01T15:21:30.670Z,40.69
2022-09-01T15:26:32.510Z,39.91
2022-09-01T15:31:34.067Z,41.33
2022-09-01T15:36:36.343Z,41.60
2022-09-01T15:41:38.187Z,43.32
2022-09-01T15:46:41.150Z,40.77
2022-09-01T15:51:43.810Z,41.20
2022-09-01T15:56:46.820Z,43.75
2022-09-01T16:01:49.595Z,44.47
2022-09-01T16:06:51.201Z,45.41
2022-09-01T16:11:53.574Z,46.41
2022-09-01T16:16:56.721Z,46.29
2022-09-01T16:22:10.544Z,47.01
2022-09-01T16:27:23.059Z,46.01
2022-09-01T16:32:24.603Z,46.29
2022-09-01T16:37:29.363Z,46.76
2022-09-01T16:42:50.686Z,47.04
2022-09-01T16:48:18.553Z,46.40
2022-09-01T16:53:33.035Z,47.14
2022-09-01T16:58:37.581Z,47.05
2022-09-01T17:03:59.400Z,48.05
2022-09-01T17:09:15.562Z,48.03
2022-09-01T17:14:27.837Z,47.40
2022-09-01T17:19:29.377Z,48.36
2022-09-01T17:24:42.940Z,48.62
2022-09-01T17:29:46.405Z,48.48
2022-09-01T17:34:53.974Z,48.62
2022-09-01T17:39:55.847Z,49.67
2022-09-01T17:45:10.462Z,49.50
2022-09-01T17:50:19.011Z,50.12
2022-09-01T17:55:28.246Z,51.41
2022-09-01T18:00:44.667Z,52.35
2022-09-01T18:05:52.066Z,54.33
2022-09-01T18:10:53.548Z,56.40
2022-09-01T18:15:59.963Z,58.23
2022-09-01T18:21:05.011Z,59.77
2022-09-01T18:26:12.423Z,61.45
2022-09-01T18:31:24.621Z,63.63
2022-09-01T18:36:39.024Z,67.37
2022-09-01T18:41:51.082Z,68.45
2022-09-01T18:47:10.681Z,68.17
2022-09-01T18:52:23.888Z,73.55
2022-09-01T18:57:31.175Z,75.17
2022-09-01T19:02:51.178Z,76.16
2022-09-01T19:08:11.829Z,80.66
2022-09-01T19:13:37.831Z,80.64
2022-09-01T19:19:05.714Z,83.49
2022-09-01T19:24:18.714Z,84.88
2022-09-01T19:29:40.669Z,86.40
2022-09-01T19:34:45.322Z,89.58
2022-09-01T19:39:50.873Z,88.41
2022-09-01T19:45:06.614Z,89.18
2022-09-01T19:50:21.348Z,90.21
2022-09-01T19:55:41.435Z,90.96
2022-09-01T20:00:52.680Z,93.13
2022-09-01T20:05:56.588Z,95.24
2022-09-01T20:11:01.285Z,96.70
2022-09-01T20:16:07.908Z,96.42
2022-09-01T20:21:20.866Z,96.33
2022-09-01T20:26:36.115Z,96.45
2022-09-01T20:31:41.746Z,96.45
2022-09-01T20:36:43.178Z,95.98
2022-09-01T20:41:49.250Z,97.59
2022-09-01T20:46:51.810Z,97.81
2022-09-01T20:51:59.838Z,99.22
2022-09-01T20:57:11.943Z,100.00
2022-09-01T21:02:19.676Z,100.00
2022-09-01T21:07:40.001Z,100.00
2022-09-01T21:12:47.501Z,100.00
2022-09-01T21:17:58.564Z,100.00
2022-09-01T21:23:00.567Z,100.00
2022-09-01T21:28:05.064Z,100.00
2022-09-01T21:33:06.513Z,100.00
2022-09-01T21:38:08.076Z,100.00
2022-09-01T21:43:15.951Z,99.92
2022-09-01T21:48:17.882Z,99.69
2022-09-01T21:53:20.537Z,99.13
2022-09-01T21:58:22.066Z,100.00
2022-09-01T22:03:24.164Z,100.00
2022-09-01T22:08:26.114Z,100.00
2022-09-01T22:13:27.690Z,100.00
2022-09-01T22:18:29.309Z,100.00
2022-09-01T22:23:30.946Z,99.84
2022-09-01T22:28:32.451Z,100.00
2022-09-01T22:33:34.137Z,100.00
2022-09-01T22:38:35.806Z,100.00
2022-09-01T22:43:37.219Z,100.00
2022-09-01T22:48:38.616Z,100.00
2022-09-01T22:53:41.368Z,100.00
2022-09-01T22:58:43.238Z,100.00
2022-09-01T23:03:44.822Z,100.00
2022-09-01T23:08:46.830Z,100.00
2022-09-01T23:13:48.238Z,100.00
2022-09-01T23:18:50.233Z,100.00
2022-09-01T23:23:58.319Z,98.47
2022-09-01T23:29:00.675Z,96.02
2022-09-01T23:34:02.365Z,93.42
2022-09-01T23:39:05.552Z,93.59
2022-09-01T23:44:09.672Z,93.23
2022-09-01T23:49:12.293Z,93.24
2022-09-01T23:54:13.743Z,93.58
2022-09-01T23:59:15.450Z,92.95
